sensor_id;sensor_type;location;lat;lon;timestamp;P1;durP1;ratioP1;P2;durP2;ratioP2
12869;SDS011;6503;48.572;13.460;2022-12-18T00:00:45;60.85;;;22.05;;
12869;SDS011;6503;48.572;13.460;2022-12-18T00:03:19;57.53;;;22.65;;
12869;SDS011;6503;48.572;13.460;2022-12-18T00:06:02;55.47;;;23.25;;
12869;SDS011;6503;48.572;13.460;2022-12-18T00:08:32;63.75;;;22.73;;
12869;SDS011;6503;48.572;13.460;2022-12-18T00:11:03;60.83;;;24.37;;
12869;SDS011;6503;48.572;13.460;2022-12-18T00:13:31;57.25;;;22.48;;
12869;SDS011;6503;48.572;13.460;2022-12-18T00:16:03;56.33;;;22.00;;
12869;SDS011;6503;48.572;13.460;2022-12-18T00:18:34;62.97;;;23.83;;
12869;SDS011;6503;48.572;13.460;2022-12-18T00:21:04;63.50;;;22.88;;
12869;SDS011;6503;48.572;13.460;2022-12-18T00:23:33;53.15;;;22.00;;
12869;SDS011;6503;48.572;13.460;2022-12-18T00:26:05;56.20;;;22.23;;
12869;SDS011;6503;48.572;13.460;2022-12-18T00:28:34;62.83;;;23.75;;
12869;SDS011;6503;48.572;13.460;2022-12-18T00:31:04;58.58;;;22.77;;
12869;SDS011;6503;48.572;13.460;2022-12-18T00:33:35;57.15;;;22.27;;
12869;SDS011;6503;48.572;13.460;2022-12-18T00:36:02;56.85;;;22.45;;
12869;SDS011;6503;48.572;13.460;2022-12-18T00:38:33;54.92;;;20.88;;
12869;SDS011;6503;48.572;13.460;2022-12-18T00:41:01;54.50;;;22.95;;
12869;SDS011;6503;48.572;13.460;2022-12-18T00:43:29;59.60;;;22.02;;
12869;SDS011;6503;48.572;13.460;2022-12-18T00:45:56;61.25;;;23.10;;
12869;SDS011;6503;48.572;13.460;2022-12-18T00:48:26;56.22;;;22.17;;
12869;SDS011;6503;48.572;13.460;2022-12-18T00:50:54;64.40;;;22.27;;
12869;SDS011;6503;48.572;13.460;2022-12-18T00:53:27;60.40;;;20.13;;
12869;SDS011;6503;48.572;13.460;2022-12-18T00:55:56;55.03;;;20.20;;
12869;SDS011;6503;48.572;13.460;2022-12-18T00:58:26;51.50;;;21.00;;
12869;SDS011;6503;48.572;13.460;2022-12-18T01:00:54;57.05;;;22.13;;
12869;SDS011;6503;48.572;13.460;2022-12-18T01:03:21;56.05;;;22.65;;
12869;SDS011;6503;48.572;13.460;2022-12-18T01:05:50;56.78;;;22.27;;
12869;SDS011;6503;48.572;13.460;2022-12-18T01:08:19;59.78;;;22.95;;
12869;SDS011;6503;48.572;13.460;2022-12-18T01:10:50;60.25;;;22.10;;
12869;SDS011;6503;48.572;13.460;2022-12-18T01:13:17;53.92;;;21.48;;
12869;SDS011;6503;48.572;13.460;2022-12-18T01:15:47;61.28;;;22.80;;
12869;SDS011;6503;48.572;13.460;2022-12-18T01:18:18;55.38;;;21.05;;
12869;SDS011;6503;48.572;13.460;2022-12-18T01:23:38;52.60;;;21.20;;
12869;SDS011;6503;48.572;13.460;2022-12-18T01:26:21;53.60;;;21.60;;
12869;SDS011;6503;48.572;13.460;2022-12-18T01:28:54;52.80;;;20.27;;
12869;SDS011;6503;48.572;13.460;2022-12-18T01:31:29;48.80;;;20.00;;
12869;SDS011;6503;48.572;13.460;2022-12-18T01:34:10;53.13;;;20.83;;
12869;SDS011;6503;48.572;13.460;2022-12-18T01:36:57;54.45;;;20.83;;
12869;SDS011;6503;48.572;13.460;2022-12-18T01:39:29;54.88;;;20.10;;
12869;SDS011;6503;48.572;13.460;2022-12-18T01:42:12;55.78;;;20.42;;
12869;SDS011;6503;48.572;13.460;2022-12-18T01:45:00;54.75;;;19.80;;
12869;SDS011;6503;48.572;13.460;2022-12-18T01:47:53;57.70;;;20.50;;
12869;SDS011;6503;48.572;13.460;2022-12-18T01:50:28;57.13;;;22.00;;
12869;SDS011;6503;48.572;13.460;2022-12-18T01:56:21;55.03;;;21.02;;
12869;SDS011;6503;48.572;13.460;2022-12-18T02:01:21;56.72;;;21.10;;
12869;SDS011;6503;48.572;13.460;2022-12-18T02:04:17;55.88;;;20.52;;
12869;SDS011;6503;48.572;13.460;2022-12-18T02:07:02;55.60;;;19.85;;
12869;SDS011;6503;48.572;13.460;2022-12-18T02:09:54;55.20;;;20.67;;
12869;SDS011;6503;48.572;13.460;2022-12-18T02:15:23;58.58;;;23.10;;
12869;SDS011;6503;48.572;13.460;2022-12-18T02:18:11;55.17;;;20.57;;
12869;SDS011;6503;48.572;13.460;2022-12-18T02:20:46;61.75;;;21.90;;
12869;SDS011;6503;48.572;13.460;2022-12-18T02:23:26;61.40;;;22.25;;
12869;SDS011;6503;48.572;13.460;2022-12-18T02:29:04;58.38;;;21.40;;
12869;SDS011;6503;48.572;13.460;2022-12-18T02:31:42;65.22;;;22.73;;
12869;SDS011;6503;48.572;13.460;2022-12-18T02:34:21;66.47;;;21.88;;
12869;SDS011;6503;48.572;13.460;2022-12-18T02:36:59;62.17;;;22.52;;
12869;SDS011;6503;48.572;13.460;2022-12-18T02:39:42;61.95;;;21.42;;
12869;SDS011;6503;48.572;13.460;2022-12-18T02:42:17;62.70;;;23.73;;
12869;SDS011;6503;48.572;13.460;2022-12-18T02:44:47;70.78;;;25.48;;
12869;SDS011;6503;48.572;13.460;2022-12-18T02:47:45;66.55;;;22.60;;
12869;SDS011;6503;48.572;13.460;2022-12-18T02:50:16;59.47;;;22.98;;
12869;SDS011;6503;48.572;13.460;2022-12-18T02:52:51;64.68;;;24.10;;
12869;SDS011;6503;48.572;13.460;2022-12-18T02:55:29;56.60;;;22.23;;
12869;SDS011;6503;48.572;13.460;2022-12-18T02:58:26;63.35;;;23.38;;
12869;SDS011;6503;48.572;13.460;2022-12-18T03:01:01;59.67;;;21.60;;
12869;SDS011;6503;48.572;13.460;2022-12-18T03:03:43;58.97;;;22.45;;
12869;SDS011;6503;48.572;13.460;2022-12-18T03:06:18;60.22;;;22.23;;
12869;SDS011;6503;48.572;13.460;2022-12-18T03:09:06;63.05;;;24.75;;
12869;SDS011;6503;48.572;13.460;2022-12-18T03:11:36;61.75;;;23.20;;
12869;SDS011;6503;48.572;13.460;2022-12-18T03:14:29;58.45;;;23.13;;
12869;SDS011;6503;48.572;13.460;2022-12-18T03:17:05;65.45;;;24.77;;
12869;SDS011;6503;48.572;13.460;2022-12-18T03:19:54;60.05;;;23.58;;
12869;SDS011;6503;48.572;13.460;2022-12-18T03:22:57;60.90;;;22.98;;
12869;SDS011;6503;48.572;13.460;2022-12-18T03:25:44;56.47;;;21.80;;
12869;SDS011;6503;48.572;13.460;2022-12-18T03:29:12;60.35;;;23.58;;
12869;SDS011;6503;48.572;13.460;2022-12-18T03:35:15;61.50;;;22.88;;
12869;SDS011;6503;48.572;13.460;2022-12-18T03:38:05;66.63;;;22.85;;
12869;SDS011;6503;48.572;13.460;2022-12-18T03:40:56;68.07;;;23.88;;
12869;SDS011;6503;48.572;13.460;2022-12-18T03:43:49;68.97;;;23.10;;
12869;SDS011;6503;48.572;13.460;2022-12-18T03:47:01;64.63;;;22.70;;
12869;SDS011;6503;48.572;13.460;2022-12-18T03:49:36;68.45;;;22.17;;
12869;SDS011;6503;48.572;13.460;2022-12-18T03:52:22;62.05;;;21.48;;
12869;SDS011;6503;48.572;13.460;2022-12-18T03:54:59;55.35;;;22.27;;
12869;SDS011;6503;48.572;13.460;2022-12-18T03:57:28;62.97;;;22.40;;
12869;SDS011;6503;48.572;13.460;2022-12-18T03:59:59;63.33;;;24.23;;
12869;SDS011;6503;48.572;13.460;2022-12-18T04:02:32;69.22;;;24.25;;
12869;SDS011;6503;48.572;13.460;2022-12-18T04:05:08;64.20;;;23.17;;
12869;SDS011;6503;48.572;13.460;2022-12-18T04:07:39;54.25;;;20.88;;
12869;SDS011;6503;48.572;13.460;2022-12-18T04:10:07;60.40;;;23.13;;
12869;SDS011;6503;48.572;13.460;2022-12-18T04:12:55;57.25;;;21.77;;
12869;SDS011;6503;48.572;13.460;2022-12-18T04:15:25;56.00;;;20.65;;
12869;SDS011;6503;48.572;13.460;2022-12-18T04:17:52;62.83;;;22.75;;
12869;SDS011;6503;48.572;13.460;2022-12-18T04:20:22;55.05;;;21.60;;
12869;SDS011;6503;48.572;13.460;2022-12-18T04:22:51;65.03;;;23.13;;
12869;SDS011;6503;48.572;13.460;2022-12-18T04:25:20;60.72;;;22.13;;
12869;SDS011;6503;48.572;13.460;2022-12-18T04:27:50;63.78;;;23.08;;
12869;SDS011;6503;48.572;13.460;2022-12-18T04:30:21;63.10;;;20.98;;
12869;SDS011;6503;48.572;13.460;2022-12-18T04:32:49;57.53;;;20.83;;
12869;SDS011;6503;48.572;13.460;2022-12-18T04:35:18;65.65;;;22.30;;
12869;SDS011;6503;48.572;13.460;2022-12-18T04:40:42;55.00;;;22.05;;
12869;SDS011;6503;48.572;13.460;2022-12-18T04:43:35;66.70;;;24.23;;
12869;SDS011;6503;48.572;13.460;2022-12-18T04:46:28;55.00;;;20.38;;
12869;SDS011;6503;48.572;13.460;2022-12-18T04:48:59;57.28;;;20.73;;
12869;SDS011;6503;48.572;13.460;2022-12-18T04:51:27;61.55;;;21.67;;
12869;SDS011;6503;48.572;13.460;2022-12-18T04:54:06;64.85;;;23.42;;
12869;SDS011;6503;48.572;13.460;2022-12-18T04:56:46;59.15;;;21.98;;
12869;SDS011;6503;48.572;13.460;2022-12-18T04:59:14;59.28;;;22.05;;
12869;SDS011;6503;48.572;13.460;2022-12-18T05:01:42;57.92;;;21.48;;
12869;SDS011;6503;48.572;13.460;2022-12-18T05:04:12;58.03;;;22.35;;
12869;SDS011;6503;48.572;13.460;2022-12-18T05:06:40;58.58;;;21.38;;
12869;SDS011;6503;48.572;13.460;2022-12-18T05:09:17;55.13;;;22.25;;
12869;SDS011;6503;48.572;13.460;2022-12-18T05:11:45;58.80;;;21.65;;
12869;SDS011;6503;48.572;13.460;2022-12-18T05:14:13;57.38;;;20.90;;
12869;SDS011;6503;48.572;13.460;2022-12-18T05:16:45;59.13;;;21.95;;
12869;SDS011;6503;48.572;13.460;2022-12-18T05:19:25;59.15;;;20.88;;
12869;SDS011;6503;48.572;13.460;2022-12-18T05:21:52;54.05;;;20.48;;
12869;SDS011;6503;48.572;13.460;2022-12-18T05:24:28;52.05;;;18.52;;
12869;SDS011;6503;48.572;13.460;2022-12-18T05:26:56;52.63;;;19.43;;
12869;SDS011;6503;48.572;13.460;2022-12-18T05:29:23;54.78;;;19.58;;
12869;SDS011;6503;48.572;13.460;2022-12-18T05:31:53;47.92;;;18.85;;
12869;SDS011;6503;48.572;13.460;2022-12-18T05:34:24;61.30;;;21.25;;
12869;SDS011;6503;48.572;13.460;2022-12-18T05:37:05;58.35;;;20.08;;
12869;SDS011;6503;48.572;13.460;2022-12-18T05:39:34;50.20;;;19.80;;
12869;SDS011;6503;48.572;13.460;2022-12-18T05:42:05;51.75;;;19.95;;
12869;SDS011;6503;48.572;13.460;2022-12-18T05:44:35;60.97;;;22.13;;
12869;SDS011;6503;48.572;13.460;2022-12-18T05:47:03;60.35;;;20.15;;
12869;SDS011;6503;48.572;13.460;2022-12-18T05:49:31;59.58;;;19.98;;
12869;SDS011;6503;48.572;13.460;2022-12-18T05:51:58;57.97;;;19.50;;
12869;SDS011;6503;48.572;13.460;2022-12-18T05:54:27;53.85;;;21.20;;
12869;SDS011;6503;48.572;13.460;2022-12-18T05:56:57;54.88;;;19.25;;
12869;SDS011;6503;48.572;13.460;2022-12-18T05:59:26;54.38;;;20.70;;
12869;SDS011;6503;48.572;13.460;2022-12-18T06:01:53;57.47;;;18.65;;
12869;SDS011;6503;48.572;13.460;2022-12-18T06:04:20;67.75;;;22.38;;
12869;SDS011;6503;48.572;13.460;2022-12-18T06:06:48;58.20;;;20.10;;
12869;SDS011;6503;48.572;13.460;2022-12-18T06:09:15;57.63;;;20.73;;
12869;SDS011;6503;48.572;13.460;2022-12-18T06:11:42;58.38;;;20.67;;
12869;SDS011;6503;48.572;13.460;2022-12-18T06:14:11;52.28;;;17.25;;
12869;SDS011;6503;48.572;13.460;2022-12-18T06:16:45;53.15;;;19.92;;
12869;SDS011;6503;48.572;13.460;2022-12-18T06:19:26;53.33;;;19.60;;
12869;SDS011;6503;48.572;13.460;2022-12-18T06:22:02;49.58;;;18.83;;
12869;SDS011;6503;48.572;13.460;2022-12-18T06:24:43;53.70;;;19.10;;
12869;SDS011;6503;48.572;13.460;2022-12-18T06:27:10;47.08;;;18.98;;
12869;SDS011;6503;48.572;13.460;2022-12-18T06:29:39;59.25;;;19.10;;
12869;SDS011;6503;48.572;13.460;2022-12-18T06:32:06;72.85;;;21.92;;
12869;SDS011;6503;48.572;13.460;2022-12-18T06:34:33;65.10;;;20.00;;
12869;SDS011;6503;48.572;13.460;2022-12-18T06:37:03;61.63;;;21.42;;
12869;SDS011;6503;48.572;13.460;2022-12-18T06:39:30;62.00;;;19.77;;
12869;SDS011;6503;48.572;13.460;2022-12-18T06:41:57;52.10;;;18.35;;
12869;SDS011;6503;48.572;13.460;2022-12-18T06:44:26;54.03;;;18.77;;
12869;SDS011;6503;48.572;13.460;2022-12-18T06:46:54;47.67;;;17.55;;
12869;SDS011;6503;48.572;13.460;2022-12-18T06:49:22;53.70;;;18.83;;
12869;SDS011;6503;48.572;13.460;2022-12-18T06:51:49;48.92;;;17.83;;
12869;SDS011;6503;48.572;13.460;2022-12-18T06:54:16;49.97;;;19.35;;
12869;SDS011;6503;48.572;13.460;2022-12-18T06:56:44;50.50;;;17.88;;
12869;SDS011;6503;48.572;13.460;2022-12-18T06:59:12;52.63;;;19.30;;
12869;SDS011;6503;48.572;13.460;2022-12-18T07:01:39;51.33;;;18.58;;
12869;SDS011;6503;48.572;13.460;2022-12-18T07:04:08;56.60;;;18.83;;
12869;SDS011;6503;48.572;13.460;2022-12-18T07:06:35;57.17;;;18.60;;
12869;SDS011;6503;48.572;13.460;2022-12-18T07:09:02;55.78;;;18.30;;
12869;SDS011;6503;48.572;13.460;2022-12-18T07:11:31;53.72;;;19.60;;
12869;SDS011;6503;48.572;13.460;2022-12-18T07:13:59;52.47;;;17.45;;
12869;SDS011;6503;48.572;13.460;2022-12-18T07:16:27;45.80;;;17.23;;
12869;SDS011;6503;48.572;13.460;2022-12-18T07:18:54;49.95;;;19.20;;
12869;SDS011;6503;48.572;13.460;2022-12-18T07:21:23;49.53;;;18.33;;
12869;SDS011;6503;48.572;13.460;2022-12-18T07:23:51;53.78;;;17.88;;
12869;SDS011;6503;48.572;13.460;2022-12-18T07:26:19;54.42;;;18.27;;
12869;SDS011;6503;48.572;13.460;2022-12-18T07:28:47;56.35;;;20.15;;
12869;SDS011;6503;48.572;13.460;2022-12-18T07:31:16;53.50;;;19.17;;
12869;SDS011;6503;48.572;13.460;2022-12-18T07:33:44;60.20;;;20.27;;
12869;SDS011;6503;48.572;13.460;2022-12-18T07:36:13;59.92;;;19.83;;
12869;SDS011;6503;48.572;13.460;2022-12-18T07:38:42;51.13;;;20.55;;
12869;SDS011;6503;48.572;13.460;2022-12-18T07:41:10;57.90;;;21.10;;
12869;SDS011;6503;48.572;13.460;2022-12-18T07:43:38;60.83;;;19.35;;
12869;SDS011;6503;48.572;13.460;2022-12-18T07:46:06;47.72;;;18.40;;
12869;SDS011;6503;48.572;13.460;2022-12-18T07:48:34;53.63;;;20.25;;
12869;SDS011;6503;48.572;13.460;2022-12-18T07:51:01;43.13;;;18.25;;
12869;SDS011;6503;48.572;13.460;2022-12-18T07:53:30;51.28;;;19.40;;
12869;SDS011;6503;48.572;13.460;2022-12-18T07:55:58;48.75;;;19.20;;
12869;SDS011;6503;48.572;13.460;2022-12-18T07:58:27;45.88;;;17.20;;
12869;SDS011;6503;48.572;13.460;2022-12-18T08:01:01;49.13;;;17.13;;
12869;SDS011;6503;48.572;13.460;2022-12-18T08:03:29;48.03;;;18.52;;
12869;SDS011;6503;48.572;13.460;2022-12-18T08:05:58;48.15;;;16.20;;
12869;SDS011;6503;48.572;13.460;2022-12-18T08:08:25;53.33;;;19.05;;
12869;SDS011;6503;48.572;13.460;2022-12-18T08:10:55;52.88;;;19.02;;
12869;SDS011;6503;48.572;13.460;2022-12-18T08:13:24;46.58;;;16.75;;
12869;SDS011;6503;48.572;13.460;2022-12-18T08:15:55;49.10;;;18.77;;
12869;SDS011;6503;48.572;13.460;2022-12-18T08:18:23;52.67;;;18.50;;
12869;SDS011;6503;48.572;13.460;2022-12-18T08:20:50;48.58;;;18.05;;
12869;SDS011;6503;48.572;13.460;2022-12-18T08:23:18;47.95;;;17.42;;
12869;SDS011;6503;48.572;13.460;2022-12-18T08:25:46;52.33;;;20.05;;
12869;SDS011;6503;48.572;13.460;2022-12-18T08:28:13;45.22;;;17.13;;
12869;SDS011;6503;48.572;13.460;2022-12-18T08:30:42;46.60;;;17.73;;
12869;SDS011;6503;48.572;13.460;2022-12-18T08:33:09;43.88;;;17.40;;
12869;SDS011;6503;48.572;13.460;2022-12-18T08:35:36;47.78;;;19.20;;
12869;SDS011;6503;48.572;13.460;2022-12-18T08:38:03;43.00;;;16.67;;
12869;SDS011;6503;48.572;13.460;2022-12-18T08:40:31;46.47;;;17.17;;
12869;SDS011;6503;48.572;13.460;2022-12-18T08:42:59;53.47;;;19.33;;
12869;SDS011;6503;48.572;13.460;2022-12-18T08:45:45;47.97;;;17.05;;
12869;SDS011;6503;48.572;13.460;2022-12-18T08:48:12;47.47;;;17.92;;
12869;SDS011;6503;48.572;13.460;2022-12-18T08:50:40;46.50;;;18.02;;
12869;SDS011;6503;48.572;13.460;2022-12-18T08:53:07;48.10;;;17.75;;
12869;SDS011;6503;48.572;13.460;2022-12-18T08:55:34;47.03;;;17.83;;
12869;SDS011;6503;48.572;13.460;2022-12-18T08:58:01;47.75;;;17.92;;
12869;SDS011;6503;48.572;13.460;2022-12-18T09:00:28;45.85;;;17.15;;
12869;SDS011;6503;48.572;13.460;2022-12-18T09:02:59;45.58;;;17.58;;
12869;SDS011;6503;48.572;13.460;2022-12-18T09:05:27;46.25;;;18.67;;
12869;SDS011;6503;48.572;13.460;2022-12-18T09:07:54;51.80;;;19.77;;
12869;SDS011;6503;48.572;13.460;2022-12-18T09:10:21;48.25;;;18.20;;
12869;SDS011;6503;48.572;13.460;2022-12-18T09:12:48;51.97;;;19.73;;
12869;SDS011;6503;48.572;13.460;2022-12-18T09:15:16;47.83;;;18.15;;
12869;SDS011;6503;48.572;13.460;2022-12-18T09:17:43;47.35;;;19.02;;
12869;SDS011;6503;48.572;13.460;2022-12-18T09:20:11;47.60;;;18.95;;
12869;SDS011;6503;48.572;13.460;2022-12-18T09:22:40;47.63;;;17.75;;
12869;SDS011;6503;48.572;13.460;2022-12-18T09:25:07;46.47;;;16.65;;
12869;SDS011;6503;48.572;13.460;2022-12-18T09:27:34;51.22;;;17.88;;
12869;SDS011;6503;48.572;13.460;2022-12-18T09:30:01;42.00;;;17.63;;
12869;SDS011;6503;48.572;13.460;2022-12-18T09:32:29;41.92;;;16.70;;
12869;SDS011;6503;48.572;13.460;2022-12-18T09:34:56;46.45;;;17.45;;
12869;SDS011;6503;48.572;13.460;2022-12-18T09:37:25;47.25;;;17.85;;
12869;SDS011;6503;48.572;13.460;2022-12-18T09:39:52;48.50;;;17.33;;
12869;SDS011;6503;48.572;13.460;2022-12-18T09:42:20;45.60;;;15.77;;
12869;SDS011;6503;48.572;13.460;2022-12-18T09:44:50;35.65;;;14.88;;
12869;SDS011;6503;48.572;13.460;2022-12-18T09:47:20;49.42;;;18.02;;
12869;SDS011;6503;48.572;13.460;2022-12-18T09:50:05;56.30;;;19.35;;
12869;SDS011;6503;48.572;13.460;2022-12-18T09:52:50;44.13;;;16.48;;
12869;SDS011;6503;48.572;13.460;2022-12-18T09:55:22;47.58;;;15.30;;
12869;SDS011;6503;48.572;13.460;2022-12-18T09:57:55;45.05;;;17.35;;
12869;SDS011;6503;48.572;13.460;2022-12-18T10:00:26;52.10;;;18.48;;
12869;SDS011;6503;48.572;13.460;2022-12-18T10:02:55;50.58;;;18.75;;
12869;SDS011;6503;48.572;13.460;2022-12-18T10:05:36;42.70;;;17.73;;
12869;SDS011;6503;48.572;13.460;2022-12-18T10:08:13;53.15;;;19.23;;
12869;SDS011;6503;48.572;13.460;2022-12-18T10:10:46;49.20;;;17.80;;
12869;SDS011;6503;48.572;13.460;2022-12-18T10:13:19;48.45;;;19.45;;
12869;SDS011;6503;48.572;13.460;2022-12-18T10:15:53;45.85;;;18.27;;
12869;SDS011;6503;48.572;13.460;2022-12-18T10:18:29;52.10;;;19.20;;
12869;SDS011;6503;48.572;13.460;2022-12-18T10:21:06;54.38;;;19.65;;
12869;SDS011;6503;48.572;13.460;2022-12-18T10:23:39;52.25;;;20.45;;
12869;SDS011;6503;48.572;13.460;2022-12-18T10:26:12;49.40;;;19.98;;
12869;SDS011;6503;48.572;13.460;2022-12-18T10:28:40;56.35;;;19.95;;
12869;SDS011;6503;48.572;13.460;2022-12-18T10:31:12;56.13;;;19.77;;
12869;SDS011;6503;48.572;13.460;2022-12-18T10:33:43;51.00;;;20.42;;
12869;SDS011;6503;48.572;13.460;2022-12-18T10:36:10;54.78;;;20.38;;
12869;SDS011;6503;48.572;13.460;2022-12-18T10:38:39;60.20;;;20.15;;
12869;SDS011;6503;48.572;13.460;2022-12-18T10:41:08;51.03;;;19.73;;
12869;SDS011;6503;48.572;13.460;2022-12-18T10:44:09;50.20;;;19.08;;
12869;SDS011;6503;48.572;13.460;2022-12-18T10:46:53;49.70;;;19.52;;
12869;SDS011;6503;48.572;13.460;2022-12-18T10:49:29;44.03;;;18.63;;
12869;SDS011;6503;48.572;13.460;2022-12-18T10:52:11;46.47;;;18.38;;
12869;SDS011;6503;48.572;13.460;2022-12-18T10:54:47;44.22;;;18.10;;
12869;SDS011;6503;48.572;13.460;2022-12-18T10:57:17;46.05;;;18.35;;
12869;SDS011;6503;48.572;13.460;2022-12-18T11:02:26;46.97;;;20.23;;
12869;SDS011;6503;48.572;13.460;2022-12-18T11:05:27;43.00;;;18.08;;
12869;SDS011;6503;48.572;13.460;2022-12-18T11:08:19;51.50;;;18.42;;
12869;SDS011;6503;48.572;13.460;2022-12-18T11:11:06;44.13;;;19.52;;
12869;SDS011;6503;48.572;13.460;2022-12-18T11:14:12;48.28;;;18.30;;
12869;SDS011;6503;48.572;13.460;2022-12-18T11:17:00;45.65;;;19.00;;
12869;SDS011;6503;48.572;13.460;2022-12-18T11:19:41;43.70;;;19.63;;
12869;SDS011;6503;48.572;13.460;2022-12-18T11:22:32;47.88;;;20.05;;
12869;SDS011;6503;48.572;13.460;2022-12-18T11:25:17;48.28;;;19.52;;
12869;SDS011;6503;48.572;13.460;2022-12-18T11:38:23;48.03;;;18.75;;
12869;SDS011;6503;48.572;13.460;2022-12-18T11:40:59;38.90;;;18.30;;
12869;SDS011;6503;48.572;13.460;2022-12-18T11:44:05;43.05;;;18.65;;
12869;SDS011;6503;48.572;13.460;2022-12-18T11:46:59;40.38;;;18.23;;
12869;SDS011;6503;48.572;13.460;2022-12-18T11:50:10;41.55;;;18.25;;
12869;SDS011;6503;48.572;13.460;2022-12-18T11:52:49;44.78;;;18.35;;
12869;SDS011;6503;48.572;13.460;2022-12-18T11:55:31;39.92;;;17.48;;
12869;SDS011;6503;48.572;13.460;2022-12-18T11:58:32;42.90;;;17.05;;
12869;SDS011;6503;48.572;13.460;2022-12-18T12:02:01;40.85;;;16.42;;
12869;SDS011;6503;48.572;13.460;2022-12-18T12:05:00;44.78;;;18.10;;
12869;SDS011;6503;48.572;13.460;2022-12-18T12:22:00;40.42;;;18.80;;
12869;SDS011;6503;48.572;13.460;2022-12-18T12:36:36;48.95;;;19.88;;
12869;SDS011;6503;48.572;13.460;2022-12-18T12:39:45;45.67;;;19.90;;
12869;SDS011;6503;48.572;13.460;2022-12-18T12:45:48;50.58;;;20.80;;
12869;SDS011;6503;48.572;13.460;2022-12-18T12:48:48;51.63;;;21.10;;
12869;SDS011;6503;48.572;13.460;2022-12-18T12:51:47;49.65;;;21.00;;
12869;SDS011;6503;48.572;13.460;2022-12-18T12:54:52;47.58;;;19.95;;
12869;SDS011;6503;48.572;13.460;2022-12-18T12:57:34;43.95;;;19.95;;
12869;SDS011;6503;48.572;13.460;2022-12-18T13:01:40;46.05;;;19.80;;
12869;SDS011;6503;48.572;13.460;2022-12-18T13:04:32;43.00;;;19.35;;
12869;SDS011;6503;48.572;13.460;2022-12-18T13:14:02;45.78;;;18.90;;
12869;SDS011;6503;48.572;13.460;2022-12-18T13:20:06;44.30;;;19.38;;
12869;SDS011;6503;48.572;13.460;2022-12-18T13:22:40;47.20;;;19.42;;
12869;SDS011;6503;48.572;13.460;2022-12-18T13:25:27;44.25;;;20.23;;
12869;SDS011;6503;48.572;13.460;2022-12-18T13:28:10;45.60;;;20.30;;
12869;SDS011;6503;48.572;13.460;2022-12-18T13:34:32;46.50;;;19.98;;
12869;SDS011;6503;48.572;13.460;2022-12-18T13:43:27;38.92;;;16.73;;
12869;SDS011;6503;48.572;13.460;2022-12-18T13:46:21;43.15;;;18.65;;
12869;SDS011;6503;48.572;13.460;2022-12-18T13:48:55;45.53;;;20.17;;
12869;SDS011;6503;48.572;13.460;2022-12-18T13:51:33;39.97;;;18.60;;
12869;SDS011;6503;48.572;13.460;2022-12-18T13:54:13;41.67;;;19.15;;
12869;SDS011;6503;48.572;13.460;2022-12-18T13:56:47;46.17;;;20.80;;
12869;SDS011;6503;48.572;13.460;2022-12-18T14:00:14;43.78;;;20.67;;
12869;SDS011;6503;48.572;13.460;2022-12-18T14:06:20;45.38;;;20.23;;
12869;SDS011;6503;48.572;13.460;2022-12-18T14:15:47;42.55;;;18.13;;
12869;SDS011;6503;48.572;13.460;2022-12-18T14:18:45;37.45;;;18.15;;
12869;SDS011;6503;48.572;13.460;2022-12-18T14:21:25;43.58;;;20.85;;
12869;SDS011;6503;48.572;13.460;2022-12-18T14:24:17;40.40;;;19.02;;
12869;SDS011;6503;48.572;13.460;2022-12-18T14:27:11;40.72;;;19.25;;
12869;SDS011;6503;48.572;13.460;2022-12-18T14:29:48;38.10;;;18.52;;
12869;SDS011;6503;48.572;13.460;2022-12-18T14:32:29;39.22;;;18.60;;
12869;SDS011;6503;48.572;13.460;2022-12-18T14:35:13;36.13;;;18.05;;
12869;SDS011;6503;48.572;13.460;2022-12-18T14:40:31;37.22;;;18.58;;
12869;SDS011;6503;48.572;13.460;2022-12-18T14:41:37;41.08;;;18.33;;
12869;SDS011;6503;48.572;13.460;2022-12-18T14:44:24;40.05;;;19.10;;
12869;SDS011;6503;48.572;13.460;2022-12-18T14:46:59;38.70;;;18.05;;
12869;SDS011;6503;48.572;13.460;2022-12-18T15:00:26;41.58;;;19.20;;
12869;SDS011;6503;48.572;13.460;2022-12-18T15:03:15;39.13;;;18.52;;
12869;SDS011;6503;48.572;13.460;2022-12-18T15:33:23;36.45;;;18.65;;
12869;SDS011;6503;48.572;13.460;2022-12-18T15:52:53;44.65;;;19.83;;
12869;SDS011;6503;48.572;13.460;2022-12-18T15:55:59;44.40;;;19.23;;
12869;SDS011;6503;48.572;13.460;2022-12-18T15:59:00;36.42;;;19.52;;
12869;SDS011;6503;48.572;13.460;2022-12-18T16:08:30;47.90;;;23.77;;
12869;SDS011;6503;48.572;13.460;2022-12-18T16:11:21;50.90;;;22.58;;
12869;SDS011;6503;48.572;13.460;2022-12-18T16:14:19;50.20;;;23.27;;
12869;SDS011;6503;48.572;13.460;2022-12-18T16:17:09;41.70;;;21.10;;
12869;SDS011;6503;48.572;13.460;2022-12-18T16:19:51;42.60;;;19.52;;
12869;SDS011;6503;48.572;13.460;2022-12-18T16:22:21;39.55;;;19.50;;
12869;SDS011;6503;48.572;13.460;2022-12-18T16:24:49;38.28;;;19.30;;
12869;SDS011;6503;48.572;13.460;2022-12-18T16:27:59;40.30;;;19.83;;
12869;SDS011;6503;48.572;13.460;2022-12-18T16:33:36;44.00;;;21.55;;
12869;SDS011;6503;48.572;13.460;2022-12-18T16:39:15;42.13;;;22.63;;
12869;SDS011;6503;48.572;13.460;2022-12-18T16:41:57;42.75;;;21.95;;
12869;SDS011;6503;48.572;13.460;2022-12-18T16:44:41;41.08;;;21.15;;
12869;SDS011;6503;48.572;13.460;2022-12-18T16:47:17;37.42;;;20.80;;
12869;SDS011;6503;48.572;13.460;2022-12-18T16:49:58;43.85;;;22.30;;
12869;SDS011;6503;48.572;13.460;2022-12-18T16:55:13;40.03;;;21.10;;
12869;SDS011;6503;48.572;13.460;2022-12-18T16:58:05;47.75;;;23.98;;
12869;SDS011;6503;48.572;13.460;2022-12-18T17:00:39;44.75;;;22.65;;
12869;SDS011;6503;48.572;13.460;2022-12-18T17:03:38;41.85;;;21.48;;
12869;SDS011;6503;48.572;13.460;2022-12-18T17:06:49;40.50;;;22.15;;
12869;SDS011;6503;48.572;13.460;2022-12-18T17:09:37;45.80;;;21.83;;
12869;SDS011;6503;48.572;13.460;2022-12-18T17:12:28;46.05;;;22.58;;
12869;SDS011;6503;48.572;13.460;2022-12-18T17:14:55;45.90;;;23.67;;
12869;SDS011;6503;48.572;13.460;2022-12-18T17:17:22;41.67;;;23.13;;
12869;SDS011;6503;48.572;13.460;2022-12-18T17:19:55;44.75;;;20.73;;
12869;SDS011;6503;48.572;13.460;2022-12-18T17:22:22;47.78;;;24.15;;
12869;SDS011;6503;48.572;13.460;2022-12-18T17:24:50;45.25;;;21.88;;
12869;SDS011;6503;48.572;13.460;2022-12-18T17:27:17;46.33;;;22.23;;
12869;SDS011;6503;48.572;13.460;2022-12-18T17:29:47;43.20;;;21.42;;
12869;SDS011;6503;48.572;13.460;2022-12-18T17:32:17;46.15;;;24.10;;
12869;SDS011;6503;48.572;13.460;2022-12-18T17:34:53;49.00;;;21.58;;
12869;SDS011;6503;48.572;13.460;2022-12-18T17:37:55;38.30;;;19.95;;
12869;SDS011;6503;48.572;13.460;2022-12-18T17:40:49;37.30;;;19.05;;
12869;SDS011;6503;48.572;13.460;2022-12-18T17:43:22;39.47;;;19.30;;
12869;SDS011;6503;48.572;13.460;2022-12-18T17:49:03;38.97;;;18.40;;
12869;SDS011;6503;48.572;13.460;2022-12-18T17:51:56;42.55;;;23.52;;
12869;SDS011;6503;48.572;13.460;2022-12-18T17:54:40;43.80;;;22.40;;
12869;SDS011;6503;48.572;13.460;2022-12-18T18:00:10;42.92;;;23.15;;
12869;SDS011;6503;48.572;13.460;2022-12-18T18:03:11;42.25;;;21.35;;
12869;SDS011;6503;48.572;13.460;2022-12-18T18:05:44;45.83;;;21.05;;
12869;SDS011;6503;48.572;13.460;2022-12-18T18:08:38;45.50;;;21.83;;